Strona główna
METAR-TAF:

METAR-TAF

Lotnisko :

Port lotniczy Bagdad

Bagdad, Irak

Szerokość geograficzna: 33-15-45N, Długość geograficzna: 44-14-04E, wysokość: 35 m

Aktualna obserwacja pogody

Raport powstał 41 minut temu, godzina 19:00 UTC
Wiatr 9 kt od zachód
Temperatura 35°C
Wilgotność 23%
Ciśnienie 1001 hPa
Widzialność 10 km lub więcej
Brak chmur poniżej 1500 m i brak chmur cumulonimbus

METAR: ORBI 171900Z 28009KT CAVOK 35/11 Q1001 NOSIG

czas: 22:41 (19:41 UTC)

Prognoza

Raport powstał 2 godziny i 41 minut temu, godzina 17:00 UTC
Prognoza ważna od 17 godzina 18 UTC do 18 godzina 18 UTC
Wiatr 10 kt od północny zachód
Widzialność: 8000 m

TAF: ORBI 171700Z 1718/1818 32010KT 8000 NSC

Obserwacja i prognoza pogody dla ponad 4000 lotnisk (raport METAR i TAF).

Dostępne stacje oznaczono żółtymi i czerwonymi punktami na mapie.

Najedź kursorem aby zobaczyć nazwę stacji.

Kliknij aby zobaczyć obserwacje i prognozy pogody.

Aby zmienić mapę: kliknij na zielony przycisk z czarnym krzyżykiem, aby powiększyć; na zielony przycisk z myślnikiem, aby pomniejszyć; na zielone strzałki, aby przejść do map sąsiednich.


METAR-TAF: